Time;durP1;ratioP1;P1;durP2;ratioP2;P2;SDS_P1;SDS_P2;PMS_P1;PMS_P2;Temp;Humidity;BMP_temperature;BMP_pressure;BME280_temperature;BME280_humidity;BME280_pressure;Samples;Min_cycle;Max_cycle;Signal;HPM_P1;HPM_P2
2021/09/15 00:02:16;;;;;;;11.10;9.13;;;20.50;99.90;;;;;;5126637;27;20194;-41
2021/09/15 00:04:41;;;;;;;10.40;9.43;;;20.40;99.90;;;;;;5126384;28;20265;-40
2021/09/15 00:07:07;;;;;;;10.27;9.37;;;20.40;99.90;;;;;;5126465;28;20210;-39
2021/09/15 00:09:33;;;;;;;9.50;8.70;;;20.40;99.90;;;;;;5125217;28;20417;-40
2021/09/15 00:11:58;;;;;;;9.53;8.77;;;20.30;99.90;;;;;;5120999;28;20199;-44
2021/09/15 00:14:24;;;;;;;9.83;8.90;;;20.40;99.90;;;;;;5119151;28;20869;-40
2021/09/15 00:16:50;;;;;;;9.50;8.70;;;20.30;99.90;;;;;;5124982;28;20266;-40
2021/09/15 00:19:16;;;;;;;10.77;9.77;;;20.30;99.90;;;;;;5125755;28;20421;-40
2021/09/15 00:21:42;;;;;;;10.40;9.47;;;20.30;99.90;;;;;;5125927;28;20977;-39
2021/09/15 00:24:08;;;;;;;10.43;9.43;;;20.30;99.90;;;;;;5126543;28;20644;-42
2021/09/15 00:26:33;;;;;;;11.07;10.07;;;20.20;99.90;;;;;;5126049;28;20617;-42
2021/09/15 00:28:59;;;;;;;12.03;9.67;;;20.20;99.90;;;;;;5109771;28;20193;-40
2021/09/15 00:31:25;;;;;;;9.67;8.77;;;20.30;99.90;;;;;;5125526;28;20211;-40
2021/09/15 00:33:50;;;;;;;9.33;8.53;;;20.20;99.90;;;;;;5107589;28;20245;-41
2021/09/15 00:36:16;;;;;;;10.13;9.30;;;20.20;99.90;;;;;;5125719;28;20262;-41
2021/09/15 00:38:42;;;;;;;9.63;8.83;;;20.20;99.90;;;;;;5126449;28;20191;-38
2021/09/15 00:41:07;;;;;;;10.00;9.00;;;20.20;99.90;;;;;;5125562;28;20189;-42
2021/09/15 00:43:33;;;;;;;9.83;9.03;;;20.20;99.90;;;;;;5115632;28;20183;-43
2021/09/15 00:45:59;;;;;;;10.40;9.60;;;20.20;99.90;;;;;;5107276;28;20179;-42
2021/09/15 00:48:25;;;;;;;9.73;9.03;;;20.20;99.90;;;;;;5125947;28;20190;-41
2021/09/15 00:50:52;;;;;;;11.23;10.13;;;20.20;99.90;;;;;;5126552;27;20179;-40
2021/09/15 00:53:18;;;;;;;11.13;10.03;;;20.20;99.90;;;;;;5129730;27;20558;-40
2021/09/15 00:55:43;;;;;;;10.73;9.70;;;20.20;99.90;;;;;;5128763;27;20519;-41
2021/09/15 00:58:09;;;;;;;9.97;9.17;;;20.20;99.90;;;;;;5120333;27;20325;-41
2021/09/15 01:00:35;;;;;;;10.57;9.77;;;20.20;99.90;;;;;;5125506;27;20215;-38
2021/09/15 01:03:00;;;;;;;10.60;9.70;;;20.30;99.90;;;;;;5127541;27;20218;-39
2021/09/15 01:05:26;;;;;;;11.07;10.17;;;20.30;99.90;;;;;;5130033;27;20645;-43
2021/09/15 01:07:53;;;;;;;10.40;9.50;;;20.30;99.90;;;;;;5110565;27;20214;-38
2021/09/15 01:10:19;;;;;;;11.43;10.43;;;20.30;99.90;;;;;;5129307;27;20425;-41
2021/09/15 01:12:45;;;;;;;11.03;9.43;;;20.30;99.90;;;;;;5123993;27;20490;-44
2021/09/15 01:15:11;;;;;;;10.63;9.70;;;20.30;99.90;;;;;;5124212;27;21467;-41
2021/09/15 01:17:37;;;;;;;9.93;9.13;;;20.30;99.90;;;;;;5129301;27;20183;-41
2021/09/15 01:20:04;;;;;;;10.97;9.90;;;20.20;99.90;;;;;;5128875;27;20182;-39
2021/09/15 01:22:30;;;;;;;12.43;10.83;;;20.20;99.90;;;;;;5129037;27;20198;-41
2021/09/15 01:24:56;;;;;;;10.90;10.00;;;20.20;99.90;;;;;;5111299;27;20428;-41
2021/09/15 01:27:22;;;;;;;10.20;9.30;;;20.20;99.90;;;;;;5125256;27;20187;-44
2021/09/15 01:29:48;;;;;;;10.30;9.40;;;20.20;99.90;;;;;;5122904;27;20194;-42
2021/09/15 01:32:15;;;;;;;10.67;9.77;;;20.20;99.90;;;;;;5129244;27;20539;-39
2021/09/15 01:34:43;;;;;;;11.33;10.33;;;20.20;99.90;;;;;;5129100;27;20398;-42
2021/09/15 01:37:11;;;;;;;9.57;8.77;;;20.30;99.90;;;;;;5129155;27;20417;-41
2021/09/15 01:39:37;;;;;;;10.03;9.17;;;20.30;99.90;;;;;;5128215;27;20773;-41
2021/09/15 01:42:05;;;;;;;10.70;9.70;;;20.30;99.90;;;;;;5129263;27;20420;-42
2021/09/15 01:44:43;;;;;;;11.17;10.17;;;20.30;99.90;;;;;;5117265;27;20187;-41
2021/09/15 01:47:10;;;;;;;10.80;9.90;;;20.30;99.90;;;;;;5121876;27;20416;-41
2021/09/15 01:49:38;;;;;;;10.43;9.63;;;20.30;99.90;;;;;;5128227;27;20417;-41
2021/09/15 01:52:05;;;;;;;10.07;9.17;;;20.30;99.90;;;;;;5129017;27;20448;-39
2021/09/15 01:54:31;;;;;;;11.83;10.70;;;20.30;99.90;;;;;;5127071;27;20461;-43
2021/09/15 01:56:57;;;;;;;10.30;9.50;;;20.30;99.90;;;;;;5128931;27;20493;-43
2021/09/15 01:59:23;;;;;;;10.70;9.80;;;20.30;99.90;;;;;;5115984;27;20432;-40
2021/09/15 02:01:49;;;;;;;10.90;10.00;;;20.30;99.90;;;;;;5123563;27;20695;-42
2021/09/15 02:04:14;;;;;;;11.13;10.03;;;20.30;99.90;;;;;;5128267;27;20191;-42
2021/09/15 02:06:40;;;;;;;12.10;11.10;;;20.30;99.90;;;;;;5128644;27;20195;-39
2021/09/15 02:09:06;;;;;;;11.43;10.43;;;20.30;99.90;;;;;;5127897;27;20194;-40
2021/09/15 02:11:35;;;;;;;11.73;10.60;;;20.30;99.90;;;;;;5128463;27;20649;-44
2021/09/15 02:14:02;;;;;;;12.07;10.97;;;20.30;99.90;;;;;;5118633;27;20482;-44
2021/09/15 02:16:28;;;;;;;11.03;9.93;;;20.30;99.90;;;;;;5128007;27;20902;-38
2021/09/15 02:18:53;;;;;;;10.97;10.07;;;20.30;99.90;;;;;;5127954;27;20420;-44
2021/09/15 02:21:20;;;;;;;11.10;9.40;;;20.30;99.90;;;;;;5128032;27;20419;-44
2021/09/15 02:23:46;;;;;;;11.07;10.07;;;20.30;99.90;;;;;;5128351;27;20217;-39
2021/09/15 02:26:14;;;;;;;11.10;9.47;;;20.30;99.90;;;;;;5128216;27;20448;-46
2021/09/15 02:28:40;;;;;;;11.00;10.00;;;20.30;99.90;;;;;;5118558;27;20434;-40
2021/09/15 02:31:06;;;;;;;10.37;9.30;;;20.30;99.90;;;;;;5127051;27;20460;-40
2021/09/15 02:33:32;;;;;;;10.60;9.70;;;20.20;99.90;;;;;;5127826;27;20449;-42
2021/09/15 02:35:59;;;;;;;9.70;9.00;;;20.30;99.90;;;;;;5128053;27;20417;-44
2021/09/15 02:38:25;;;;;;;11.30;10.17;;;20.20;99.90;;;;;;5128308;27;20435;-40
2021/09/15 02:40:51;;;;;;;10.10;9.30;;;20.20;99.90;;;;;;5127674;27;20858;-39
2021/09/15 02:43:17;;;;;;;10.37;9.40;;;20.20;99.90;;;;;;5122436;27;20450;-41
2021/09/15 02:45:42;;;;;;;10.27;9.37;;;20.20;99.90;;;;;;5119222;27;20915;-41
2021/09/15 02:48:08;;;;;;;11.87;10.67;;;20.20;99.90;;;;;;5127910;27;20653;-40
2021/09/15 02:50:34;;;;;;;11.37;10.33;;;20.20;99.90;;;;;;5127254;27;20191;-42
2021/09/15 02:53:00;;;;;;;11.57;10.47;;;20.20;99.90;;;;;;5127315;27;20221;-41
2021/09/15 02:55:25;;;;;;;11.50;10.50;;;20.20;99.90;;;;;;5107650;27;20579;-40
2021/09/15 02:57:51;;;;;;;9.90;9.00;;;20.20;99.90;;;;;;5125327;27;20187;-39
2021/09/15 03:00:17;;;;;;;9.73;8.93;;;20.20;99.90;;;;;;5114364;27;20752;-42
2021/09/15 03:02:43;;;;;;;11.13;10.13;;;20.20;99.90;;;;;;5121672;27;20179;-42
2021/09/15 03:05:09;;;;;;;10.67;9.67;;;20.20;99.90;;;;;;5127715;27;20225;-44
2021/09/15 03:07:35;;;;;;;10.43;9.20;;;20.20;99.90;;;;;;5127251;27;20460;-39
2021/09/15 03:10:01;;;;;;;11.47;10.40;;;20.10;99.90;;;;;;5127025;27;20446;-43
2021/09/15 03:12:26;;;;;;;12.00;11.00;;;20.10;99.90;;;;;;5127138;27;20227;-40
2021/09/15 03:14:52;;;;;;;10.37;9.47;;;20.10;99.90;;;;;;5119854;27;20563;-40
2021/09/15 03:17:17;;;;;;;11.10;10.10;;;20.10;99.90;;;;;;5125730;27;20650;-39
2021/09/15 03:19:43;;;;;;;10.03;9.13;;;20.10;99.90;;;;;;5106219;28;20180;-39
2021/09/15 03:22:09;;;;;;;11.67;10.60;;;20.10;99.90;;;;;;5114742;27;20212;-41
2021/09/15 03:24:34;;;;;;;11.60;10.50;;;20.10;99.90;;;;;;5127595;27;20357;-42
2021/09/15 03:27:03;;;;;;;11.90;11.00;;;20.10;99.90;;;;;;5126960;27;20198;-39
2021/09/15 03:29:30;;;;;;;10.93;10.00;;;20.10;99.90;;;;;;5115079;27;20215;-39
2021/09/15 03:31:56;;;;;;;11.37;10.37;;;20.00;99.90;;;;;;5124384;27;20777;-46
2021/09/15 03:34:22;;;;;;;11.87;10.87;;;20.00;99.90;;;;;;5125603;27;20457;-40
2021/09/15 03:36:48;;;;;;;11.83;10.83;;;20.00;99.90;;;;;;5126841;27;20420;-39
2021/09/15 03:39:16;;;;;;;11.30;10.20;;;20.00;99.90;;;;;;5126292;27;20187;-43
2021/09/15 03:41:42;;;;;;;12.70;11.60;;;20.00;99.90;;;;;;5126855;27;20195;-39
2021/09/15 03:44:08;;;;;;;13.17;11.83;;;20.10;99.90;;;;;;5119634;27;20853;-39
2021/09/15 03:46:33;;;;;;;11.67;10.67;;;20.00;99.90;;;;;;5122782;27;20202;-40
2021/09/15 03:48:59;;;;;;;12.83;11.50;;;20.10;99.90;;;;;;5125988;27;20232;-39
2021/09/15 03:51:25;;;;;;;11.63;10.63;;;20.10;99.90;;;;;;5126896;27;20224;-39
2021/09/15 03:53:51;;;;;;;11.83;10.70;;;20.10;99.90;;;;;;5124783;27;20301;-39
2021/09/15 03:56:17;;;;;;;10.83;9.93;;;20.10;99.90;;;;;;5126949;27;20503;-41
2021/09/15 03:58:42;;;;;;;12.67;11.57;;;20.10;99.90;;;;;;5102621;28;20213;-38
2021/09/15 04:01:10;;;;;;;12.30;11.20;;;20.10;99.90;;;;;;5124369;27;20179;-39
2021/09/15 04:03:36;;;;;;;11.90;10.90;;;20.10;99.90;;;;;;5126524;27;20593;-44
2021/09/15 04:06:02;;;;;;;11.70;10.70;;;20.10;99.90;;;;;;5126381;28;20417;-42
2021/09/15 04:08:28;;;;;;;11.97;10.87;;;20.10;99.90;;;;;;5126684;28;20439;-42
2021/09/15 04:10:54;;;;;;;10.80;9.90;;;20.10;99.90;;;;;;5125226;28;20477;-41
2021/09/15 04:13:19;;;;;;;12.07;10.97;;;20.10;99.90;;;;;;5123583;28;20372;-42
2021/09/15 04:15:45;;;;;;;11.67;10.67;;;20.00;99.90;;;;;;5118756;28;20203;-42
2021/09/15 04:18:12;;;;;;;11.80;10.80;;;20.00;99.90;;;;;;5124309;28;20244;-42
2021/09/15 04:20:39;;;;;;;11.77;10.77;;;20.00;99.90;;;;;;5125476;28;20597;-44
2021/09/15 04:23:11;;;;;;;12.63;11.13;;;20.00;99.90;;;;;;5126227;28;20752;-39
2021/09/15 04:31:25;;;;;;;12.30;11.20;;;20.00;99.90;;;;;;5122300;27;20791;-40
2021/09/15 04:33:52;;;;;;;11.17;10.23;;;19.90;99.90;;;;;;5123896;27;20468;-39
2021/09/15 04:36:18;;;;;;;11.40;10.40;;;20.00;99.90;;;;;;5130314;27;20914;-38
2021/09/15 04:38:44;;;;;;;11.57;10.57;;;20.00;99.90;;;;;;5130780;27;20409;-39
2021/09/15 04:41:10;;;;;;;12.23;11.07;;;20.00;99.90;;;;;;5129515;27;20941;-41
2021/09/15 04:43:36;;;;;;;11.93;10.83;;;20.00;99.90;;;;;;5127011;27;20527;-41
2021/09/15 04:46:02;;;;;;;12.80;11.63;;;20.00;99.90;;;;;;5119773;27;20839;-43
2021/09/15 04:48:27;;;;;;;12.73;11.43;;;20.00;99.90;;;;;;5124199;27;20188;-39
2021/09/15 04:50:53;;;;;;;11.60;10.60;;;19.90;99.90;;;;;;5128849;27;20179;-40
2021/09/15 04:53:20;;;;;;;12.00;10.87;;;20.00;99.90;;;;;;5123933;27;20179;-44
2021/09/15 04:55:46;;;;;;;13.13;11.97;;;19.90;99.90;;;;;;5128832;27;20207;-40
2021/09/15 04:58:11;;;;;;;11.77;10.77;;;19.90;99.90;;;;;;5129923;27;20744;-42
2021/09/15 05:00:37;;;;;;;12.30;11.30;;;19.90;99.90;;;;;;5121495;27;20424;-42
2021/09/15 05:03:03;;;;;;;12.13;11.13;;;19.90;99.90;;;;;;5123477;27;20267;-41
2021/09/15 05:05:29;;;;;;;11.70;10.63;;;19.90;99.90;;;;;;5130260;27;20625;-40
2021/09/15 05:07:54;;;;;;;12.40;11.30;;;19.90;99.90;;;;;;5129547;27;20447;-45
2021/09/15 05:10:26;;;;;;;13.37;12.20;;;20.00;99.90;;;;;;5129269;27;20255;-40
2021/09/15 05:12:56;;;;;;;13.10;11.90;;;19.90;99.90;;;;;;5129660;27;20232;-39
2021/09/15 05:15:23;;;;;;;11.97;10.97;;;20.00;99.90;;;;;;5117970;27;20934;-42
2021/09/15 05:17:49;;;;;;;14.93;13.53;;;20.00;99.90;;;;;;5127963;27;20700;-40
2021/09/15 05:20:18;;;;;;;13.43;12.23;;;20.00;99.90;;;;;;5129086;27;20915;-39
2021/09/15 05:22:52;;;;;;;12.93;11.80;;;20.00;99.90;;;;;;5129416;27;20428;-43
2021/09/15 05:25:19;;;;;;;14.27;13.00;;;19.90;99.90;;;;;;5126852;27;20828;-42
2021/09/15 05:27:45;;;;;;;14.00;12.70;;;19.90;99.90;;;;;;5129434;27;20433;-40
2021/09/15 05:30:12;;;;;;;14.33;13.03;;;19.90;99.90;;;;;;5116823;27;20468;-41
2021/09/15 05:32:38;;;;;;;14.53;13.33;;;19.90;99.90;;;;;;5129211;27;20448;-39
2021/09/15 05:35:06;;;;;;;13.50;12.33;;;19.90;99.90;;;;;;5114718;27;20456;-41
2021/09/15 05:37:32;;;;;;;13.80;12.60;;;19.90;99.90;;;;;;5111463;27;20459;-39
2021/09/15 05:39:59;;;;;;;14.80;13.30;;;19.90;99.90;;;;;;5128706;27;20651;-45
2021/09/15 05:42:25;;;;;;;15.87;14.27;;;19.90;99.90;;;;;;5111271;27;20275;-42
2021/09/15 05:44:51;;;;;;;18.27;14.70;;;19.90;99.90;;;;;;5120788;27;20445;-39
2021/09/15 05:47:17;;;;;;;15.93;14.43;;;19.80;99.90;;;;;;5122056;27;20638;-39
2021/09/15 05:49:42;;;;;;;15.50;14.00;;;19.90;99.90;;;;;;5127574;27;20183;-40
2021/09/15 05:52:08;;;;;;;14.43;13.13;;;19.90;99.90;;;;;;5127121;27;20768;-41
2021/09/15 05:54:34;;;;;;;16.23;14.30;;;19.80;99.90;;;;;;5127037;27;20199;-39
2021/09/15 05:56:59;;;;;;;16.87;15.10;;;19.80;99.90;;;;;;5129176;27;20232;-41
2021/09/15 05:59:25;;;;;;;18.47;15.23;;;19.80;99.90;;;;;;5123490;27;20617;-42
2021/09/15 06:01:51;;;;;;;18.00;15.97;;;19.80;99.90;;;;;;5125265;27;20658;-39
2021/09/15 06:04:16;;;;;;;16.70;15.10;;;19.80;99.90;;;;;;5128523;27;20183;-41
2021/09/15 06:06:42;;;;;;;17.20;15.60;;;19.70;99.90;;;;;;5110558;27;20300;-39
2021/09/15 06:09:08;;;;;;;17.50;15.43;;;19.70;99.90;;;;;;5127979;27;20257;-42
2021/09/15 06:11:33;;;;;;;14.97;13.67;;;19.70;99.90;;;;;;5110339;27;20232;-42
2021/09/15 06:13:59;;;;;;;15.87;14.37;;;19.70;99.90;;;;;;5108885;27;20297;-41
2021/09/15 06:16:25;;;;;;;16.00;14.50;;;19.70;99.90;;;;;;5119548;27;20191;-40
2021/09/15 06:18:51;;;;;;;16.47;15.07;;;19.70;99.90;;;;;;5123102;27;20302;-44
2021/09/15 06:21:17;;;;;;;15.93;14.53;;;19.70;99.90;;;;;;5129981;27;20243;-46
2021/09/15 06:23:44;;;;;;;16.00;14.60;;;19.70;99.90;;;;;;5127648;27;20615;-44
2021/09/15 06:26:10;;;;;;;17.73;15.90;;;19.70;99.90;;;;;;5126178;27;20966;-42
2021/09/15 06:28:36;;;;;;;16.73;14.70;;;19.70;99.90;;;;;;5127241;27;20424;-43
2021/09/15 06:31:02;;;;;;;16.13;14.53;;;19.60;99.90;;;;;;5127555;27;20469;-41
2021/09/15 06:33:28;;;;;;;16.00;14.50;;;19.60;99.90;;;;;;5127265;27;20186;-42
2021/09/15 06:35:54;;;;;;;16.50;15.00;;;19.60;99.90;;;;;;5107283;27;20521;-42
2021/09/15 06:38:20;;;;;;;15.43;14.03;;;19.70;99.90;;;;;;5126897;27;20421;-43
2021/09/15 06:40:46;;;;;;;15.47;14.03;;;19.60;99.90;;;;;;5125655;27;20191;-41
2021/09/15 06:43:12;;;;;;;15.47;13.97;;;19.70;99.90;;;;;;5127732;27;20462;-46
2021/09/15 06:45:37;;;;;;;16.13;14.50;;;19.60;99.90;;;;;;5118510;27;20835;-42
2021/09/15 06:48:03;;;;;;;15.83;14.33;;;19.70;99.90;;;;;;5126141;27;20295;-41
2021/09/15 06:50:29;;;;;;;17.63;15.67;;;19.70;99.90;;;;;;5122877;27;20222;-40
2021/09/15 06:52:55;;;;;;;16.90;15.20;;;19.70;99.90;;;;;;5127740;27;20417;-41
2021/09/15 06:55:23;;;;;;;17.47;15.83;;;19.60;99.90;;;;;;5126409;27;20771;-41
2021/09/15 06:57:49;;;;;;;17.10;14.73;;;19.70;99.90;;;;;;5127220;27;20176;-39
2021/09/15 07:00:18;;;;;;;14.80;13.40;;;19.70;99.90;;;;;;5120045;27;20452;-42
2021/09/15 07:02:44;;;;;;;15.27;13.70;;;19.70;99.90;;;;;;5123987;27;20431;-42
2021/09/15 07:05:10;;;;;;;15.73;14.33;;;19.70;99.90;;;;;;5101876;27;20424;-39
2021/09/15 07:07:36;;;;;;;14.60;13.20;;;19.70;99.90;;;;;;5127140;27;20203;-39
2021/09/15 07:10:11;;;;;;;14.50;13.20;;;19.70;99.90;;;;;;5101983;27;20523;-40
2021/09/15 07:12:38;;;;;;;14.20;12.83;;;19.70;99.90;;;;;;5101966;28;20409;-42
2021/09/15 07:15:08;;;;;;;15.53;14.13;;;19.70;99.90;;;;;;5098956;28;20512;-42
2021/09/15 07:17:34;;;;;;;14.07;12.57;;;19.70;99.90;;;;;;5100130;28;20426;-40
2021/09/15 07:20:00;;;;;;;13.93;12.53;;;19.70;99.90;;;;;;5103003;28;20754;-44
2021/09/15 07:22:25;;;;;;;13.83;12.53;;;19.70;99.90;;;;;;5102127;28;20433;-40
2021/09/15 07:24:51;;;;;;;13.70;11.50;;;19.80;99.90;;;;;;5103153;28;20188;-40
2021/09/15 07:27:18;;;;;;;12.47;11.37;;;19.70;99.90;;;;;;5103077;28;20188;-39
2021/09/15 07:29:44;;;;;;;12.53;11.43;;;19.80;99.90;;;;;;5102362;28;20465;-40
2021/09/15 07:32:10;;;;;;;13.80;12.53;;;19.80;99.90;;;;;;5091137;28;20428;-41
2021/09/15 07:34:37;;;;;;;13.47;12.27;;;19.90;99.90;;;;;;5101538;28;20192;-43
2021/09/15 07:37:03;;;;;;;12.23;11.13;;;19.90;99.90;;;;;;5103265;28;20187;-40
2021/09/15 07:39:28;;;;;;;10.80;9.90;;;19.90;99.90;;;;;;5101999;28;20465;-41
2021/09/15 07:41:54;;;;;;;15.37;12.33;;;20.00;99.90;;;;;;5102795;28;20223;-44
2021/09/15 07:44:20;;;;;;;11.80;10.70;;;20.00;99.90;;;;;;5102293;28;20212;-42
2021/09/15 07:46:45;;;;;;;10.93;10.03;;;20.00;99.90;;;;;;5092948;28;20199;-40
2021/09/15 07:49:11;;;;;;;10.57;9.57;;;20.10;99.90;;;;;;5102054;28;20222;-39
2021/09/15 07:51:37;;;;;;;13.00;10.23;;;20.10;99.90;;;;;;5101141;28;20187;-39
2021/09/15 07:54:02;;;;;;;9.53;8.63;;;20.20;99.90;;;;;;5102577;28;20188;-42
2021/09/15 07:56:28;;;;;;;10.17;9.27;;;20.20;99.90;;;;;;5101855;28;20208;-40
2021/09/15 07:58:54;;;;;;;11.23;10.13;;;20.20;99.90;;;;;;5102421;28;20194;-39
2021/09/15 08:01:22;;;;;;;10.07;9.03;;;20.10;99.90;;;;;;5098219;28;20284;-41
2021/09/15 08:03:48;;;;;;;10.53;9.53;;;20.20;99.90;;;;;;5100683;28;20187;-44
2021/09/15 08:06:14;;;;;;;10.27;9.37;;;20.20;99.90;;;;;;5102159;28;20483;-40
2021/09/15 08:08:39;;;;;;;9.73;8.73;;;20.30;99.90;;;;;;5101534;28;20517;-39
2021/09/15 08:11:05;;;;;;;10.03;9.10;;;20.30;99.90;;;;;;5101547;28;20582;-40
2021/09/15 08:13:31;;;;;;;9.37;8.47;;;20.40;99.90;;;;;;5102243;28;20190;-43
2021/09/15 08:15:56;;;;;;;9.37;8.47;;;20.30;99.90;;;;;;5098068;28;20201;-39
2021/09/15 08:18:22;;;;;;;9.63;7.53;;;20.40;99.90;;;;;;5096741;28;20184;-40
2021/09/15 08:20:48;;;;;;;8.63;7.83;;;20.40;99.90;;;;;;5091764;28;20197;-39
2021/09/15 08:23:15;;;;;;;8.30;7.50;;;20.40;99.90;;;;;;5087558;28;20643;-39
2021/09/15 08:25:41;;;;;;;8.07;7.37;;;20.40;99.90;;;;;;5088042;28;20196;-39
2021/09/15 08:28:07;;;;;;;7.77;7.07;;;20.50;99.90;;;;;;5088275;28;20450;-39
2021/09/15 08:30:33;;;;;;;8.27;7.43;;;20.50;99.90;;;;;;5086555;28;20423;-40
2021/09/15 08:32:59;;;;;;;9.50;8.27;;;20.50;99.90;;;;;;5082478;28;20860;-39
2021/09/15 08:35:25;;;;;;;8.87;8.07;;;20.50;99.90;;;;;;5078453;28;20437;-38
2021/09/15 08:37:50;;;;;;;9.63;8.63;;;20.50;99.90;;;;;;5088244;28;20795;-41
2021/09/15 08:40:16;;;;;;;8.83;7.33;;;20.50;99.90;;;;;;5087801;28;20233;-39
2021/09/15 08:42:42;;;;;;;10.77;7.73;;;20.50;99.90;;;;;;5088328;28;20283;-41
2021/09/15 08:45:10;;;;;;;8.73;7.83;;;20.50;99.90;;;;;;5088013;28;20185;-40
2021/09/15 08:47:39;;;;;;;8.27;7.47;;;20.50;99.90;;;;;;5077687;28;20227;-40
2021/09/15 08:50:06;;;;;;;8.50;7.70;;;20.50;99.90;;;;;;5086520;28;20882;-38
2021/09/15 08:52:32;;;;;;;8.80;7.63;;;20.50;99.90;;;;;;5088113;28;20422;-41
2021/09/15 08:54:58;;;;;;;8.43;7.60;;;20.50;99.90;;;;;;5086018;28;20430;-38
2021/09/15 08:57:23;;;;;;;10.10;7.97;;;20.60;99.90;;;;;;5088124;28;20197;-41
2021/09/15 08:59:49;;;;;;;8.50;7.70;;;20.60;99.90;;;;;;5086774;28;20199;-42
2021/09/15 09:02:15;;;;;;;8.50;7.80;;;20.60;99.90;;;;;;5076985;28;20196;-42
2021/09/15 09:05:00;;;;;;;9.50;8.57;;;20.50;99.90;;;;;;5084490;28;20199;-39
2021/09/15 09:07:27;;;;;;;8.43;7.67;;;20.60;99.90;;;;;;5080558;28;20950;-39
2021/09/15 09:09:54;;;;;;;8.27;7.33;;;20.50;99.90;;;;;;5086802;28;20499;-40
2021/09/15 09:12:24;;;;;;;10.13;9.23;;;20.60;99.90;;;;;;5086877;28;20426;-42
2021/09/15 09:14:50;;;;;;;9.90;9.00;;;20.60;99.90;;;;;;5086381;28;20421;-40
2021/09/15 09:17:29;;;;;;;9.63;8.63;;;20.50;99.90;;;;;;5076816;28;20503;-39
2021/09/15 09:20:12;;;;;;;10.43;8.37;;;20.50;99.90;;;;;;5086460;28;20422;-42
2021/09/15 09:22:58;;;;;;;8.63;7.93;;;20.50;99.90;;;;;;5084624;28;20447;-41
2021/09/15 09:25:24;;;;;;;11.10;9.03;;;20.50;99.90;;;;;;5087406;28;20530;-39
2021/09/15 09:27:50;;;;;;;8.40;7.70;;;20.60;99.90;;;;;;5086810;28;20684;-41
2021/09/15 09:30:50;;;;;;;8.50;7.80;;;20.60;99.90;;;;;;5086824;28;20425;-40
2021/09/15 09:33:17;;;;;;;10.60;9.70;;;20.60;99.90;;;;;;5053787;28;20438;-40
2021/09/15 09:35:56;;;;;;;10.27;9.00;;;20.60;99.90;;;;;;5087225;28;20422;-42
2021/09/15 09:38:21;;;;;;;11.07;10.07;;;20.60;99.90;;;;;;5084923;28;20430;-42
2021/09/15 09:40:54;;;;;;;11.87;10.87;;;20.60;99.90;;;;;;5086768;28;20411;-39
2021/09/15 09:43:20;;;;;;;11.37;10.33;;;20.70;99.90;;;;;;5086388;28;20637;-40
2021/09/15 09:45:47;;;;;;;11.63;10.60;;;20.70;99.90;;;;;;5086617;28;20423;-40
2021/09/15 09:48:28;;;;;;;11.47;10.47;;;20.70;99.90;;;;;;5078563;28;20658;-42
2021/09/15 09:50:53;;;;;;;11.23;10.30;;;20.70;99.90;;;;;;5086186;28;20450;-40
2021/09/15 09:53:19;;;;;;;11.83;10.73;;;20.70;99.90;;;;;;5086520;28;20794;-39
2021/09/15 09:55:46;;;;;;;12.13;10.23;;;20.60;99.90;;;;;;5085895;28;20292;-41
2021/09/15 09:58:13;;;;;;;10.90;9.80;;;20.70;99.90;;;;;;5086431;28;20271;-42
2021/09/15 10:00:40;;;;;;;14.43;11.67;;;20.60;99.90;;;;;;5076863;28;20818;-40
2021/09/15 10:03:06;;;;;;;12.47;11.07;;;20.60;99.90;;;;;;5074175;28;20442;-40
2021/09/15 10:05:31;;;;;;;10.50;9.60;;;20.60;99.90;;;;;;5086156;28;20427;-42
2021/09/15 10:07:57;;;;;;;11.97;10.77;;;20.70;99.90;;;;;;5086415;28;20433;-40
2021/09/15 10:10:23;;;;;;;11.13;10.10;;;20.60;99.90;;;;;;5085184;28;20670;-41
2021/09/15 10:12:50;;;;;;;11.53;10.40;;;20.60;99.90;;;;;;5086339;28;20546;-39
2021/09/15 10:15:17;;;;;;;10.83;9.83;;;20.60;99.90;;;;;;5086366;28;20298;-41
2021/09/15 10:17:54;;;;;;;11.90;10.80;;;20.50;99.90;;;;;;5076332;28;21480;-42
2021/09/15 10:20:28;;;;;;;10.80;9.77;;;20.50;99.90;;;;;;5084202;28;20426;-40
2021/09/15 10:22:54;;;;;;;10.77;9.80;;;20.50;99.90;;;;;;5073818;28;20430;-41
2021/09/15 10:25:38;;;;;;;11.47;10.47;;;20.50;99.90;;;;;;5085915;28;20434;-39
2021/09/15 10:28:07;;;;;;;11.10;10.00;;;20.60;99.90;;;;;;5086093;28;20463;-39
2021/09/15 10:30:59;;;;;;;10.73;9.83;;;20.60;99.90;;;;;;5085277;28;20488;-40
2021/09/15 10:33:36;;;;;;;10.60;9.73;;;20.60;99.90;;;;;;5077465;28;20783;-40
2021/09/15 10:36:12;;;;;;;11.93;10.40;;;20.60;99.90;;;;;;5077863;28;20436;-44
2021/09/15 10:38:57;;;;;;;9.40;8.60;;;20.60;99.90;;;;;;5085956;28;20410;-40
2021/09/15 10:41:42;;;;;;;10.37;9.47;;;20.60;99.90;;;;;;5085612;28;20422;-39
2021/09/15 10:44:12;;;;;;;10.97;8.90;;;20.70;99.90;;;;;;5074821;28;20510;-43
2021/09/15 10:46:39;;;;;;;9.00;8.10;;;20.70;99.90;;;;;;5082823;28;20672;-42
2021/09/15 10:49:23;;;;;;;10.07;9.10;;;20.80;99.90;;;;;;5075666;28;20461;-43
2021/09/15 10:52:07;;;;;;;7.47;6.77;;;20.80;99.90;;;;;;5085525;28;20422;-42
2021/09/15 10:54:47;;;;;;;8.50;7.80;;;20.70;99.90;;;;;;5084931;28;20448;-43
2021/09/15 10:57:20;;;;;;;6.90;6.33;;;20.80;99.90;;;;;;5085829;28;20493;-41
2021/09/15 11:00:02;;;;;;;6.73;6.13;;;20.80;99.90;;;;;;5085156;28;20441;-39
2021/09/15 11:02:34;;;;;;;6.00;5.43;;;20.80;99.90;;;;;;5086384;28;20422;-39
2021/09/15 11:05:26;;;;;;;5.40;4.90;;;20.80;99.90;;;;;;5086371;28;20498;-40
2021/09/15 11:07:51;;;;;;;5.77;5.17;;;20.80;99.90;;;;;;5084903;28;21308;-39
2021/09/15 11:10:35;;;;;;;6.70;6.10;;;20.80;99.90;;;;;;5085315;28;20538;-39
2021/09/15 11:13:37;;;;;;;5.73;5.13;;;20.80;99.90;;;;;;5086004;28;20181;-39
2021/09/15 11:16:32;;;;;;;5.63;4.90;;;20.80;99.90;;;;;;5060510;28;20431;-41
2021/09/15 11:19:15;;;;;;;5.53;5.03;;;20.80;99.90;;;;;;5074618;28;20446;-41
2021/09/15 11:21:43;;;;;;;6.23;5.60;;;20.70;99.90;;;;;;5084652;28;20429;-40
2021/09/15 11:24:17;;;;;;;5.37;4.77;;;20.80;99.90;;;;;;5086862;28;20872;-39
2021/09/15 11:26:56;;;;;;;5.17;4.77;;;20.80;99.90;;;;;;5085937;28;20490;-43
2021/09/15 11:29:37;;;;;;;5.60;5.10;;;20.80;99.90;;;;;;5087414;28;20569;-42
2021/09/15 11:32:24;;;;;;;5.37;4.87;;;20.70;99.90;;;;;;5084955;28;20422;-39
2021/09/15 11:34:53;;;;;;;5.30;4.90;;;20.80;99.90;;;;;;5080964;28;20564;-44
2021/09/15 11:37:30;;;;;;;5.20;4.80;;;20.80;99.90;;;;;;5084567;28;20476;-41
2021/09/15 11:40:02;;;;;;;4.77;4.37;;;20.80;99.90;;;;;;5085233;28;20418;-41
2021/09/15 11:42:35;;;;;;;4.73;4.33;;;20.80;99.90;;;;;;5083759;28;20471;-42
2021/09/15 11:45:22;;;;;;;4.70;4.13;;;20.80;99.90;;;;;;5083641;28;20530;-41
2021/09/15 11:47:50;;;;;;;4.90;4.50;;;20.90;99.90;;;;;;5079498;28;20590;-38
2021/09/15 11:50:21;;;;;;;4.80;4.40;;;20.80;99.90;;;;;;5079831;28;20423;-39
2021/09/15 11:52:55;;;;;;;4.97;4.57;;;20.80;99.90;;;;;;5079319;28;20406;-39
2021/09/15 11:55:21;;;;;;;4.77;4.37;;;20.90;99.90;;;;;;5083333;28;20846;-40
2021/09/15 11:57:47;;;;;;;4.93;4.47;;;20.90;99.90;;;;;;5088577;28;20415;-43
2021/09/15 12:00:14;;;;;;;4.30;4.00;;;20.90;99.90;;;;;;5088348;28;20513;-42
2021/09/15 12:02:42;;;;;;;4.40;4.07;;;20.90;99.90;;;;;;5083960;28;20435;-42
2021/09/15 12:05:11;;;;;;;6.13;4.30;;;20.90;99.90;;;;;;5081797;28;20928;-39
2021/09/15 12:07:37;;;;;;;5.00;4.60;;;20.80;99.90;;;;;;5088539;28;20777;-39
2021/09/15 12:10:12;;;;;;;4.60;4.20;;;20.90;99.90;;;;;;5087831;28;20549;-38
2021/09/15 12:12:39;;;;;;;4.70;4.30;;;20.90;99.90;;;;;;5088662;28;20732;-39
2021/09/15 12:15:06;;;;;;;5.43;5.03;;;20.90;99.90;;;;;;5089195;28;20495;-40
2021/09/15 12:17:33;;;;;;;5.53;4.67;;;20.90;99.90;;;;;;5085050;28;20465;-39
2021/09/15 12:19:59;;;;;;;7.80;5.20;;;20.90;99.90;;;;;;5080397;28;20441;-39
2021/09/15 12:22:29;;;;;;;6.07;5.57;;;21.00;99.90;;;;;;5088257;28;20741;-41
2021/09/15 12:24:58;;;;;;;6.50;5.90;;;21.00;99.90;;;;;;5088491;28;20219;-42
2021/09/15 12:27:24;;;;;;;5.13;4.73;;;21.00;99.90;;;;;;5088504;28;20939;-44
2021/09/15 12:30:03;;;;;;;5.67;5.20;;;21.00;99.90;;;;;;5087917;28;20472;-41
2021/09/15 12:32:32;;;;;;;5.73;5.23;;;20.90;99.90;;;;;;5086132;28;20418;-42
2021/09/15 12:34:58;;;;;;;6.33;5.80;;;21.00;99.90;;;;;;5081623;28;20434;-40
2021/09/15 12:37:24;;;;;;;5.93;5.53;;;21.00;99.90;;;;;;5083795;28;20431;-42
2021/09/15 12:40:02;;;;;;;6.13;5.63;;;21.00;99.90;;;;;;5081994;28;20212;-41
2021/09/15 12:42:30;;;;;;;7.37;6.67;;;21.00;99.90;;;;;;5088289;28;20422;-39
2021/09/15 12:45:09;;;;;;;6.63;6.07;;;21.10;99.90;;;;;;5086750;28;20495;-40
2021/09/15 12:47:36;;;;;;;7.00;6.40;;;21.10;99.90;;;;;;5084412;28;20809;-39